sensor_id;sensor_type;location;lat;lon;timestamp;temperature;humidity
35700;DHT22;21818;51.078;12.108;2024-03-06T00:01:31;11.70;88.60
35700;DHT22;21818;51.078;12.108;2024-03-06T00:03:56;11.70;88.60
35700;DHT22;21818;51.078;12.108;2024-03-06T00:06:22;11.70;88.50
35700;DHT22;21818;51.078;12.108;2024-03-06T00:08:47;11.70;88.50
35700;DHT22;21818;51.078;12.108;2024-03-06T00:11:13;11.70;88.60
35700;DHT22;21818;51.078;12.108;2024-03-06T00:13:38;11.70;88.60
35700;DHT22;21818;51.078;12.108;2024-03-06T00:16:04;11.70;88.60
35700;DHT22;21818;51.078;12.108;2024-03-06T00:18:30;11.70;88.50
35700;DHT22;21818;51.078;12.108;2024-03-06T00:20:55;11.70;88.50
35700;DHT22;21818;51.078;12.108;2024-03-06T00:23:21;11.70;88.50
35700;DHT22;21818;51.078;12.108;2024-03-06T00:25:47;11.70;88.50
35700;DHT22;21818;51.078;12.108;2024-03-06T00:28:12;11.70;88.60
35700;DHT22;21818;51.078;12.108;2024-03-06T00:30:38;11.70;88.50
35700;DHT22;21818;51.078;12.108;2024-03-06T00:33:03;11.70;88.50
35700;DHT22;21818;51.078;12.108;2024-03-06T00:35:29;11.60;88.70
35700;DHT22;21818;51.078;12.108;2024-03-06T00:37:54;11.60;88.60
35700;DHT22;21818;51.078;12.108;2024-03-06T00:40:20;11.70;88.60
35700;DHT22;21818;51.078;12.108;2024-03-06T00:42:46;11.60;88.50
35700;DHT22;21818;51.078;12.108;2024-03-06T00:45:11;11.60;88.50
35700;DHT22;21818;51.078;12.108;2024-03-06T00:47:37;11.70;88.60
35700;DHT22;21818;51.078;12.108;2024-03-06T00:50:03;11.60;88.60
35700;DHT22;21818;51.078;12.108;2024-03-06T00:52:31;11.60;88.70
35700;DHT22;21818;51.078;12.108;2024-03-06T00:54:57;11.70;88.60
35700;DHT22;21818;51.078;12.108;2024-03-06T00:57:22;11.70;88.50
35700;DHT22;21818;51.078;12.108;2024-03-06T00:59:48;11.70;88.70
35700;DHT22;21818;51.078;12.108;2024-03-06T01:02:13;11.60;88.60
35700;DHT22;21818;51.078;12.108;2024-03-06T01:04:39;11.60;88.70
35700;DHT22;21818;51.078;12.108;2024-03-06T01:07:05;11.60;88.80
35700;DHT22;21818;51.078;12.108;2024-03-06T01:09:30;11.60;88.80
35700;DHT22;21818;51.078;12.108;2024-03-06T01:11:56;11.60;88.80
35700;DHT22;21818;51.078;12.108;2024-03-06T01:14:22;11.60;88.90
35700;DHT22;21818;51.078;12.108;2024-03-06T01:16:47;11.50;88.80
35700;DHT22;21818;51.078;12.108;2024-03-06T01:19:13;11.50;88.80
35700;DHT22;21818;51.078;12.108;2024-03-06T01:21:38;11.50;88.80
35700;DHT22;21818;51.078;12.108;2024-03-06T01:24:04;11.50;88.90
35700;DHT22;21818;51.078;12.108;2024-03-06T01:26:30;11.50;88.90
35700;DHT22;21818;51.078;12.108;2024-03-06T01:28:55;11.50;88.80
35700;DHT22;21818;51.078;12.108;2024-03-06T01:31:21;11.50;88.80
35700;DHT22;21818;51.078;12.108;2024-03-06T01:33:46;11.50;88.80
35700;DHT22;21818;51.078;12.108;2024-03-06T01:36:12;11.50;88.70
35700;DHT22;21818;51.078;12.108;2024-03-06T01:38:38;11.40;88.70
35700;DHT22;21818;51.078;12.108;2024-03-06T01:41:03;11.50;88.80
35700;DHT22;21818;51.078;12.108;2024-03-06T01:43:37;11.50;88.70
35700;DHT22;21818;51.078;12.108;2024-03-06T01:46:02;11.50;88.50
35700;DHT22;21818;51.078;12.108;2024-03-06T01:48:30;11.40;88.50
35700;DHT22;21818;51.078;12.108;2024-03-06T01:50:58;11.40;88.60
35700;DHT22;21818;51.078;12.108;2024-03-06T01:53:27;11.40;88.60
35700;DHT22;21818;51.078;12.108;2024-03-06T01:55:54;11.40;88.60
35700;DHT22;21818;51.078;12.108;2024-03-06T01:58:20;11.40;88.60
35700;DHT22;21818;51.078;12.108;2024-03-06T02:00:47;11.40;88.60
35700;DHT22;21818;51.078;12.108;2024-03-06T02:03:13;11.40;88.70
35700;DHT22;21818;51.078;12.108;2024-03-06T02:05:38;11.40;88.60
35700;DHT22;21818;51.078;12.108;2024-03-06T02:08:04;11.40;88.60
35700;DHT22;21818;51.078;12.108;2024-03-06T02:10:31;11.40;88.50
35700;DHT22;21818;51.078;12.108;2024-03-06T02:12:56;11.40;88.50
35700;DHT22;21818;51.078;12.108;2024-03-06T02:15:23;11.40;88.60
35700;DHT22;21818;51.078;12.108;2024-03-06T02:17:49;11.40;88.60
35700;DHT22;21818;51.078;12.108;2024-03-06T02:20:14;11.40;88.60
35700;DHT22;21818;51.078;12.108;2024-03-06T02:22:41;11.30;88.60
35700;DHT22;21818;51.078;12.108;2024-03-06T02:25:07;11.30;88.70
35700;DHT22;21818;51.078;12.108;2024-03-06T02:27:32;11.30;88.80
35700;DHT22;21818;51.078;12.108;2024-03-06T02:29:58;11.20;88.70
35700;DHT22;21818;51.078;12.108;2024-03-06T02:32:24;11.20;88.80
35700;DHT22;21818;51.078;12.108;2024-03-06T02:34:50;11.20;88.80
35700;DHT22;21818;51.078;12.108;2024-03-06T02:37:16;11.20;88.80
35700;DHT22;21818;51.078;12.108;2024-03-06T02:39:42;11.20;88.90
35700;DHT22;21818;51.078;12.108;2024-03-06T02:42:07;11.20;88.70
35700;DHT22;21818;51.078;12.108;2024-03-06T02:44:33;11.30;88.70
35700;DHT22;21818;51.078;12.108;2024-03-06T02:46:59;11.30;88.70
35700;DHT22;21818;51.078;12.108;2024-03-06T02:49:24;11.30;88.60
35700;DHT22;21818;51.078;12.108;2024-03-06T02:51:50;11.30;88.50
35700;DHT22;21818;51.078;12.108;2024-03-06T02:54:17;11.30;88.50
35700;DHT22;21818;51.078;12.108;2024-03-06T02:56:42;11.30;88.50
35700;DHT22;21818;51.078;12.108;2024-03-06T02:59:08;11.20;88.50
35700;DHT22;21818;51.078;12.108;2024-03-06T03:01:34;11.20;88.50
35700;DHT22;21818;51.078;12.108;2024-03-06T03:04:00;11.20;88.40
35700;DHT22;21818;51.078;12.108;2024-03-06T03:06:25;11.20;88.30
35700;DHT22;21818;51.078;12.108;2024-03-06T03:08:51;11.20;88.40
35700;DHT22;21818;51.078;12.108;2024-03-06T03:11:16;11.10;88.40
35700;DHT22;21818;51.078;12.108;2024-03-06T03:13:42;11.10;88.50
35700;DHT22;21818;51.078;12.108;2024-03-06T03:16:18;11.10;88.50
35700;DHT22;21818;51.078;12.108;2024-03-06T03:18:45;11.00;88.40
35700;DHT22;21818;51.078;12.108;2024-03-06T03:21:11;11.00;88.40
35700;DHT22;21818;51.078;12.108;2024-03-06T03:23:38;11.00;88.80
35700;DHT22;21818;51.078;12.108;2024-03-06T03:26:05;11.00;88.30
35700;DHT22;21818;51.078;12.108;2024-03-06T03:28:31;11.00;88.30
35700;DHT22;21818;51.078;12.108;2024-03-06T03:30:56;11.00;88.30
35700;DHT22;21818;51.078;12.108;2024-03-06T03:33:22;10.90;88.30
35700;DHT22;21818;51.078;12.108;2024-03-06T03:35:48;10.80;88.20
35700;DHT22;21818;51.078;12.108;2024-03-06T03:38:14;10.80;88.30
35700;DHT22;21818;51.078;12.108;2024-03-06T03:40:39;10.80;88.30
35700;DHT22;21818;51.078;12.108;2024-03-06T03:43:05;10.80;88.30
35700;DHT22;21818;51.078;12.108;2024-03-06T03:45:34;10.70;88.30
35700;DHT22;21818;51.078;12.108;2024-03-06T03:48:01;10.70;88.40
35700;DHT22;21818;51.078;12.108;2024-03-06T03:50:30;10.70;88.40
35700;DHT22;21818;51.078;12.108;2024-03-06T03:52:56;10.70;88.30
35700;DHT22;21818;51.078;12.108;2024-03-06T03:55:24;10.70;88.30
35700;DHT22;21818;51.078;12.108;2024-03-06T03:57:50;10.70;88.30
35700;DHT22;21818;51.078;12.108;2024-03-06T04:00:16;10.60;88.80
35700;DHT22;21818;51.078;12.108;2024-03-06T04:02:42;10.60;88.30
35700;DHT22;21818;51.078;12.108;2024-03-06T04:05:08;10.50;88.20
35700;DHT22;21818;51.078;12.108;2024-03-06T04:07:35;10.50;88.20
35700;DHT22;21818;51.078;12.108;2024-03-06T04:10:01;10.50;88.30
35700;DHT22;21818;51.078;12.108;2024-03-06T04:12:27;10.40;88.20
35700;DHT22;21818;51.078;12.108;2024-03-06T04:14:53;10.50;88.20
35700;DHT22;21818;51.078;12.108;2024-03-06T04:17:18;10.50;88.10
35700;DHT22;21818;51.078;12.108;2024-03-06T04:19:44;10.50;88.10
35700;DHT22;21818;51.078;12.108;2024-03-06T04:22:10;10.50;88.00
35700;DHT22;21818;51.078;12.108;2024-03-06T04:24:36;10.50;88.00
35700;DHT22;21818;51.078;12.108;2024-03-06T04:27:01;10.40;88.00
35700;DHT22;21818;51.078;12.108;2024-03-06T04:29:28;10.40;88.00
35700;DHT22;21818;51.078;12.108;2024-03-06T04:31:53;10.40;88.00
35700;DHT22;21818;51.078;12.108;2024-03-06T04:34:19;10.40;88.00
35700;DHT22;21818;51.078;12.108;2024-03-06T04:36:45;10.40;88.00
35700;DHT22;21818;51.078;12.108;2024-03-06T04:39:10;10.40;87.80
35700;DHT22;21818;51.078;12.108;2024-03-06T04:41:37;10.40;87.80
35700;DHT22;21818;51.078;12.108;2024-03-06T04:44:03;10.40;87.80
35700;DHT22;21818;51.078;12.108;2024-03-06T04:46:28;10.30;87.90
35700;DHT22;21818;51.078;12.108;2024-03-06T04:48:54;10.30;87.90
35700;DHT22;21818;51.078;12.108;2024-03-06T04:51:19;10.30;87.90
35700;DHT22;21818;51.078;12.108;2024-03-06T04:53:45;10.30;87.80
35700;DHT22;21818;51.078;12.108;2024-03-06T04:56:11;10.30;87.80
35700;DHT22;21818;51.078;12.108;2024-03-06T04:58:38;10.30;87.70
35700;DHT22;21818;51.078;12.108;2024-03-06T05:01:03;10.30;87.60
35700;DHT22;21818;51.078;12.108;2024-03-06T05:03:29;10.30;87.60
35700;DHT22;21818;51.078;12.108;2024-03-06T05:05:55;10.40;87.60
35700;DHT22;21818;51.078;12.108;2024-03-06T05:08:20;10.40;87.40
35700;DHT22;21818;51.078;12.108;2024-03-06T05:10:46;10.30;87.40
35700;DHT22;21818;51.078;12.108;2024-03-06T05:13:12;10.30;87.50
35700;DHT22;21818;51.078;12.108;2024-03-06T05:15:37;10.30;87.70
35700;DHT22;21818;51.078;12.108;2024-03-06T05:18:05;10.30;87.60
35700;DHT22;21818;51.078;12.108;2024-03-06T05:20:30;10.30;87.70
35700;DHT22;21818;51.078;12.108;2024-03-06T05:22:56;10.30;87.60
35700;DHT22;21818;51.078;12.108;2024-03-06T05:25:22;10.30;87.60
35700;DHT22;21818;51.078;12.108;2024-03-06T05:27:48;10.30;87.60
35700;DHT22;21818;51.078;12.108;2024-03-06T05:30:13;10.30;87.50
35700;DHT22;21818;51.078;12.108;2024-03-06T05:32:40;10.30;87.70
35700;DHT22;21818;51.078;12.108;2024-03-06T05:35:07;10.20;87.60
35700;DHT22;21818;51.078;12.108;2024-03-06T05:37:35;10.20;87.60
35700;DHT22;21818;51.078;12.108;2024-03-06T05:40:01;10.20;87.60
35700;DHT22;21818;51.078;12.108;2024-03-06T05:42:30;10.10;87.60
35700;DHT22;21818;51.078;12.108;2024-03-06T05:44:57;10.10;87.60
35700;DHT22;21818;51.078;12.108;2024-03-06T05:47:26;10.10;87.70
35700;DHT22;21818;51.078;12.108;2024-03-06T05:49:52;10.10;87.70
35700;DHT22;21818;51.078;12.108;2024-03-06T05:52:17;10.10;87.70
35700;DHT22;21818;51.078;12.108;2024-03-06T05:54:43;10.00;87.60
35700;DHT22;21818;51.078;12.108;2024-03-06T05:57:09;10.00;87.50
35700;DHT22;21818;51.078;12.108;2024-03-06T05:59:34;9.80;87.80
35700;DHT22;21818;51.078;12.108;2024-03-06T06:02:00;9.90;87.90
35700;DHT22;21818;51.078;12.108;2024-03-06T06:04:26;9.90;87.70
35700;DHT22;21818;51.078;12.108;2024-03-06T06:06:51;9.90;87.60
35700;DHT22;21818;51.078;12.108;2024-03-06T06:09:17;9.90;87.60
35700;DHT22;21818;51.078;12.108;2024-03-06T06:11:44;9.90;87.60
35700;DHT22;21818;51.078;12.108;2024-03-06T06:14:10;9.90;87.70
35700;DHT22;21818;51.078;12.108;2024-03-06T06:16:37;9.80;87.60
35700;DHT22;21818;51.078;12.108;2024-03-06T06:19:03;9.70;87.70
35700;DHT22;21818;51.078;12.108;2024-03-06T06:21:29;9.70;88.00
35700;DHT22;21818;51.078;12.108;2024-03-06T06:23:55;9.70;87.80
35700;DHT22;21818;51.078;12.108;2024-03-06T06:26:21;9.60;87.90
35700;DHT22;21818;51.078;12.108;2024-03-06T06:28:47;9.60;87.90
35700;DHT22;21818;51.078;12.108;2024-03-06T06:31:12;9.70;87.90
35700;DHT22;21818;51.078;12.108;2024-03-06T06:33:38;9.70;87.80
35700;DHT22;21818;51.078;12.108;2024-03-06T06:36:04;9.60;87.70
35700;DHT22;21818;51.078;12.108;2024-03-06T06:38:29;9.60;87.80
35700;DHT22;21818;51.078;12.108;2024-03-06T06:40:56;9.60;87.70
35700;DHT22;21818;51.078;12.108;2024-03-06T06:43:21;9.60;87.70
35700;DHT22;21818;51.078;12.108;2024-03-06T06:45:47;9.50;87.80
35700;DHT22;21818;51.078;12.108;2024-03-06T06:48:13;9.60;87.80
35700;DHT22;21818;51.078;12.108;2024-03-06T06:50:38;9.60;87.60
35700;DHT22;21818;51.078;12.108;2024-03-06T06:53:04;9.60;87.80
35700;DHT22;21818;51.078;12.108;2024-03-06T06:55:30;9.60;87.90
35700;DHT22;21818;51.078;12.108;2024-03-06T06:57:55;9.70;87.80
35700;DHT22;21818;51.078;12.108;2024-03-06T07:00:21;9.80;87.60
35700;DHT22;21818;51.078;12.108;2024-03-06T07:02:48;9.80;87.70
35700;DHT22;21818;51.078;12.108;2024-03-06T07:05:14;9.80;87.60
35700;DHT22;21818;51.078;12.108;2024-03-06T07:07:40;9.70;87.50
35700;DHT22;21818;51.078;12.108;2024-03-06T07:10:06;9.70;87.70
35700;DHT22;21818;51.078;12.108;2024-03-06T07:12:32;9.70;87.70
35700;DHT22;21818;51.078;12.108;2024-03-06T07:14:58;9.70;87.80
35700;DHT22;21818;51.078;12.108;2024-03-06T07:17:24;9.70;87.80
35700;DHT22;21818;51.078;12.108;2024-03-06T07:19:50;9.70;87.90
35700;DHT22;21818;51.078;12.108;2024-03-06T07:22:17;9.80;87.70
35700;DHT22;21818;51.078;12.108;2024-03-06T07:24:43;9.80;87.70
35700;DHT22;21818;51.078;12.108;2024-03-06T07:27:09;9.70;87.70
35700;DHT22;21818;51.078;12.108;2024-03-06T07:29:35;9.80;87.80
35700;DHT22;21818;51.078;12.108;2024-03-06T07:32:01;9.80;87.90
35700;DHT22;21818;51.078;12.108;2024-03-06T07:34:26;9.90;87.70
35700;DHT22;21818;51.078;12.108;2024-03-06T07:36:52;10.00;87.50
35700;DHT22;21818;51.078;12.108;2024-03-06T07:39:21;9.90;87.50
35700;DHT22;21818;51.078;12.108;2024-03-06T07:41:47;10.00;87.50
35700;DHT22;21818;51.078;12.108;2024-03-06T07:44:12;9.90;87.50
35700;DHT22;21818;51.078;12.108;2024-03-06T07:46:38;9.90;87.50
35700;DHT22;21818;51.078;12.108;2024-03-06T07:49:04;10.00;87.50
35700;DHT22;21818;51.078;12.108;2024-03-06T07:51:30;10.00;87.40
35700;DHT22;21818;51.078;12.108;2024-03-06T07:53:56;10.00;87.50
35700;DHT22;21818;51.078;12.108;2024-03-06T07:56:23;10.00;87.40
35700;DHT22;21818;51.078;12.108;2024-03-06T07:58:48;10.10;87.50
35700;DHT22;21818;51.078;12.108;2024-03-06T08:01:15;10.10;87.30
35700;DHT22;21818;51.078;12.108;2024-03-06T08:03:41;10.10;87.20
35700;DHT22;21818;51.078;12.108;2024-03-06T08:06:09;10.20;87.20
35700;DHT22;21818;51.078;12.108;2024-03-06T08:08:35;10.20;87.00
35700;DHT22;21818;51.078;12.108;2024-03-06T08:11:01;10.20;87.00
35700;DHT22;21818;51.078;12.108;2024-03-06T08:13:27;10.30;87.20
35700;DHT22;21818;51.078;12.108;2024-03-06T08:15:53;10.30;87.10
35700;DHT22;21818;51.078;12.108;2024-03-06T08:18:18;10.30;87.20
35700;DHT22;21818;51.078;12.108;2024-03-06T08:20:44;10.30;87.00
35700;DHT22;21818;51.078;12.108;2024-03-06T08:23:09;10.30;87.10
35700;DHT22;21818;51.078;12.108;2024-03-06T08:25:35;10.30;86.80
35700;DHT22;21818;51.078;12.108;2024-03-06T08:28:01;10.30;86.90
35700;DHT22;21818;51.078;12.108;2024-03-06T08:30:28;10.30;86.70
35700;DHT22;21818;51.078;12.108;2024-03-06T08:32:55;10.40;86.80
35700;DHT22;21818;51.078;12.108;2024-03-06T08:35:21;10.40;86.80
35700;DHT22;21818;51.078;12.108;2024-03-06T08:37:49;10.50;86.80
35700;DHT22;21818;51.078;12.108;2024-03-06T08:40:15;10.40;86.70
35700;DHT22;21818;51.078;12.108;2024-03-06T08:42:41;10.50;86.60
35700;DHT22;21818;51.078;12.108;2024-03-06T08:45:07;10.50;86.40
35700;DHT22;21818;51.078;12.108;2024-03-06T08:47:34;10.50;87.00
35700;DHT22;21818;51.078;12.108;2024-03-06T08:49:59;10.60;86.50
35700;DHT22;21818;51.078;12.108;2024-03-06T08:52:25;10.60;86.30
35700;DHT22;21818;51.078;12.108;2024-03-06T08:54:51;10.70;86.30
35700;DHT22;21818;51.078;12.108;2024-03-06T08:57:16;10.70;86.10
35700;DHT22;21818;51.078;12.108;2024-03-06T08:59:42;10.80;86.10
35700;DHT22;21818;51.078;12.108;2024-03-06T09:02:13;10.80;86.00
35700;DHT22;21818;51.078;12.108;2024-03-06T09:04:40;10.90;86.10
35700;DHT22;21818;51.078;12.108;2024-03-06T09:07:06;10.90;85.80
35700;DHT22;21818;51.078;12.108;2024-03-06T09:09:31;11.00;85.80
35700;DHT22;21818;51.078;12.108;2024-03-06T09:11:59;11.00;85.70
35700;DHT22;21818;51.078;12.108;2024-03-06T09:14:25;11.00;85.80
35700;DHT22;21818;51.078;12.108;2024-03-06T09:16:51;11.00;85.70
35700;DHT22;21818;51.078;12.108;2024-03-06T09:19:16;11.10;85.60
35700;DHT22;21818;51.078;12.108;2024-03-06T09:21:42;11.10;85.50
35700;DHT22;21818;51.078;12.108;2024-03-06T09:24:07;11.20;85.50
35700;DHT22;21818;51.078;12.108;2024-03-06T09:26:33;11.20;85.40
35700;DHT22;21818;51.078;12.108;2024-03-06T09:28:58;11.20;85.50
35700;DHT22;21818;51.078;12.108;2024-03-06T09:31:24;11.20;85.30
35700;DHT22;21818;51.078;12.108;2024-03-06T09:33:50;11.20;85.40
35700;DHT22;21818;51.078;12.108;2024-03-06T09:36:16;11.30;85.30
35700;DHT22;21818;51.078;12.108;2024-03-06T09:38:42;11.30;85.40
35700;DHT22;21818;51.078;12.108;2024-03-06T09:41:08;11.30;85.30
35700;DHT22;21818;51.078;12.108;2024-03-06T09:43:34;11.30;85.30
35700;DHT22;21818;51.078;12.108;2024-03-06T09:45:59;11.40;85.30
35700;DHT22;21818;51.078;12.108;2024-03-06T09:48:28;11.40;85.20
35700;DHT22;21818;51.078;12.108;2024-03-06T09:51:00;11.50;85.10
35700;DHT22;21818;51.078;12.108;2024-03-06T09:53:26;11.50;85.00
35700;DHT22;21818;51.078;12.108;2024-03-06T09:55:52;11.60;84.90
35700;DHT22;21818;51.078;12.108;2024-03-06T09:58:17;11.60;84.90
35700;DHT22;21818;51.078;12.108;2024-03-06T10:00:44;11.60;84.80
35700;DHT22;21818;51.078;12.108;2024-03-06T10:03:10;11.60;84.70
35700;DHT22;21818;51.078;12.108;2024-03-06T10:05:36;11.70;84.80
35700;DHT22;21818;51.078;12.108;2024-03-06T10:08:03;11.70;84.60
35700;DHT22;21818;51.078;12.108;2024-03-06T10:10:30;11.70;84.50
35700;DHT22;21818;51.078;12.108;2024-03-06T10:12:55;11.80;84.60
35700;DHT22;21818;51.078;12.108;2024-03-06T10:15:26;11.80;84.40
35700;DHT22;21818;51.078;12.108;2024-03-06T10:18:12;11.80;84.30
35700;DHT22;21818;51.078;12.108;2024-03-06T10:20:38;11.90;84.20
35700;DHT22;21818;51.078;12.108;2024-03-06T10:23:04;11.90;84.20
35700;DHT22;21818;51.078;12.108;2024-03-06T10:25:29;12.00;84.00
35700;DHT22;21818;51.078;12.108;2024-03-06T10:28:09;12.00;83.90
35700;DHT22;21818;51.078;12.108;2024-03-06T10:30:37;12.00;83.70
35700;DHT22;21818;51.078;12.108;2024-03-06T10:33:04;12.10;83.90
35700;DHT22;21818;51.078;12.108;2024-03-06T10:35:31;12.10;83.70
35700;DHT22;21818;51.078;12.108;2024-03-06T10:38:00;12.10;83.60
35700;DHT22;21818;51.078;12.108;2024-03-06T10:40:27;12.20;83.40
35700;DHT22;21818;51.078;12.108;2024-03-06T10:42:55;12.20;83.30
35700;DHT22;21818;51.078;12.108;2024-03-06T10:45:25;12.30;83.30
35700;DHT22;21818;51.078;12.108;2024-03-06T10:47:53;12.30;83.10
35700;DHT22;21818;51.078;12.108;2024-03-06T10:50:19;12.30;83.00
35700;DHT22;21818;51.078;12.108;2024-03-06T10:52:46;12.30;82.80
35700;DHT22;21818;51.078;12.108;2024-03-06T10:55:12;12.40;82.80
35700;DHT22;21818;51.078;12.108;2024-03-06T10:57:40;12.40;82.60
35700;DHT22;21818;51.078;12.108;2024-03-06T11:00:07;12.50;82.50
35700;DHT22;21818;51.078;12.108;2024-03-06T11:02:34;12.60;82.30
35700;DHT22;21818;51.078;12.108;2024-03-06T11:05:01;12.60;82.20
35700;DHT22;21818;51.078;12.108;2024-03-06T11:07:30;12.70;82.00
35700;DHT22;21818;51.078;12.108;2024-03-06T11:09:58;12.70;81.80
35700;DHT22;21818;51.078;12.108;2024-03-06T11:12:38;12.70;81.80
35700;DHT22;21818;51.078;12.108;2024-03-06T11:15:14;12.80;81.70
35700;DHT22;21818;51.078;12.108;2024-03-06T11:17:40;12.80;81.40
35700;DHT22;21818;51.078;12.108;2024-03-06T11:20:12;12.90;81.30
35700;DHT22;21818;51.078;12.108;2024-03-06T11:31:00;13.20;80.90
35700;DHT22;21818;51.078;12.108;2024-03-06T11:33:46;13.20;81.20
35700;DHT22;21818;51.078;12.108;2024-03-06T11:36:26;13.30;80.60
35700;DHT22;21818;51.078;12.108;2024-03-06T11:41:23;13.40;80.30
35700;DHT22;21818;51.078;12.108;2024-03-06T11:43:50;13.50;80.20
35700;DHT22;21818;51.078;12.108;2024-03-06T11:46:19;13.50;80.00
35700;DHT22;21818;51.078;12.108;2024-03-06T11:48:52;13.60;79.80
35700;DHT22;21818;51.078;12.108;2024-03-06T11:51:18;13.70;79.50
35700;DHT22;21818;51.078;12.108;2024-03-06T11:53:44;13.80;79.30
35700;DHT22;21818;51.078;12.108;2024-03-06T11:56:10;13.80;79.10
35700;DHT22;21818;51.078;12.108;2024-03-06T11:58:36;13.90;79.00
35700;DHT22;21818;51.078;12.108;2024-03-06T12:01:03;14.00;78.80
35700;DHT22;21818;51.078;12.108;2024-03-06T12:03:29;14.10;78.70
35700;DHT22;21818;51.078;12.108;2024-03-06T12:05:55;14.20;78.50
35700;DHT22;21818;51.078;12.108;2024-03-06T12:08:20;14.40;78.10
35700;DHT22;21818;51.078;12.108;2024-03-06T12:10:46;14.50;77.70
35700;DHT22;21818;51.078;12.108;2024-03-06T12:13:13;14.60;77.50
35700;DHT22;21818;51.078;12.108;2024-03-06T12:15:42;14.70;77.30
35700;DHT22;21818;51.078;12.108;2024-03-06T12:18:07;14.80;77.00
35700;DHT22;21818;51.078;12.108;2024-03-06T12:20:33;14.90;76.80
35700;DHT22;21818;51.078;12.108;2024-03-06T12:22:58;14.90;76.60
35700;DHT22;21818;51.078;12.108;2024-03-06T12:25:25;15.00;76.40
35700;DHT22;21818;51.078;12.108;2024-03-06T12:27:53;15.20;76.40
35700;DHT22;21818;51.078;12.108;2024-03-06T12:30:23;15.30;76.10
35700;DHT22;21818;51.078;12.108;2024-03-06T12:32:58;15.50;75.90
35700;DHT22;21818;51.078;12.108;2024-03-06T12:35:27;15.60;75.50
35700;DHT22;21818;51.078;12.108;2024-03-06T12:37:53;15.80;75.50
35700;DHT22;21818;51.078;12.108;2024-03-06T12:40:19;15.90;75.20
35700;DHT22;21818;51.078;12.108;2024-03-06T12:42:45;16.00;75.00
35700;DHT22;21818;51.078;12.108;2024-03-06T12:45:11;16.00;74.70
35700;DHT22;21818;51.078;12.108;2024-03-06T12:47:43;16.00;74.40
35700;DHT22;21818;51.078;12.108;2024-03-06T12:50:11;16.10;74.50
35700;DHT22;21818;51.078;12.108;2024-03-06T12:52:37;16.30;74.40
35700;DHT22;21818;51.078;12.108;2024-03-06T12:55:03;16.40;74.30
35700;DHT22;21818;51.078;12.108;2024-03-06T12:57:33;16.60;74.00
35700;DHT22;21818;51.078;12.108;2024-03-06T13:00:00;16.70;73.90
35700;DHT22;21818;51.078;12.108;2024-03-06T13:02:25;16.60;73.50
35700;DHT22;21818;51.078;12.108;2024-03-06T13:04:51;16.50;73.30
35700;DHT22;21818;51.078;12.108;2024-03-06T13:07:18;16.40;73.00
35700;DHT22;21818;51.078;12.108;2024-03-06T13:09:44;16.30;73.00
35700;DHT22;21818;51.078;12.108;2024-03-06T13:12:10;16.30;73.70
35700;DHT22;21818;51.078;12.108;2024-03-06T13:14:36;16.30;72.90
35700;DHT22;21818;51.078;12.108;2024-03-06T13:17:01;16.20;72.90
35700;DHT22;21818;51.078;12.108;2024-03-06T13:19:28;16.00;72.90
35700;DHT22;21818;51.078;12.108;2024-03-06T13:21:53;15.90;72.80
35700;DHT22;21818;51.078;12.108;2024-03-06T13:24:19;15.90;72.80
35700;DHT22;21818;51.078;12.108;2024-03-06T13:26:46;15.90;72.70
35700;DHT22;21818;51.078;12.108;2024-03-06T13:29:13;16.00;72.20
35700;DHT22;21818;51.078;12.108;2024-03-06T13:31:39;16.00;72.20
35700;DHT22;21818;51.078;12.108;2024-03-06T13:34:04;15.90;72.20
35700;DHT22;21818;51.078;12.108;2024-03-06T13:36:30;16.00;72.30
35700;DHT22;21818;51.078;12.108;2024-03-06T13:38:56;16.30;72.10
35700;DHT22;21818;51.078;12.108;2024-03-06T13:41:22;16.50;71.70
35700;DHT22;21818;51.078;12.108;2024-03-06T13:43:48;16.70;71.10
35700;DHT22;21818;51.078;12.108;2024-03-06T13:46:13;16.60;70.90
35700;DHT22;21818;51.078;12.108;2024-03-06T13:48:39;16.70;71.00
35700;DHT22;21818;51.078;12.108;2024-03-06T13:51:05;16.80;70.80
35700;DHT22;21818;51.078;12.108;2024-03-06T13:53:31;16.50;70.50
35700;DHT22;21818;51.078;12.108;2024-03-06T13:55:57;16.40;70.60
35700;DHT22;21818;51.078;12.108;2024-03-06T13:58:22;16.20;70.80
35700;DHT22;21818;51.078;12.108;2024-03-06T14:00:48;16.30;70.80
35700;DHT22;21818;51.078;12.108;2024-03-06T14:03:13;16.60;70.40
35700;DHT22;21818;51.078;12.108;2024-03-06T14:05:39;16.80;69.60
35700;DHT22;21818;51.078;12.108;2024-03-06T14:08:05;17.00;69.50
35700;DHT22;21818;51.078;12.108;2024-03-06T14:10:31;17.10;69.50
35700;DHT22;21818;51.078;12.108;2024-03-06T14:13:02;17.20;69.50
35700;DHT22;21818;51.078;12.108;2024-03-06T14:15:27;17.20;69.10
35700;DHT22;21818;51.078;12.108;2024-03-06T14:17:53;16.90;69.00
35700;DHT22;21818;51.078;12.108;2024-03-06T14:20:20;16.70;69.10
35700;DHT22;21818;51.078;12.108;2024-03-06T14:22:46;16.50;69.30
35700;DHT22;21818;51.078;12.108;2024-03-06T14:25:12;16.60;69.40
35700;DHT22;21818;51.078;12.108;2024-03-06T14:27:38;16.90;69.00
35700;DHT22;21818;51.078;12.108;2024-03-06T14:30:04;17.00;68.70
35700;DHT22;21818;51.078;12.108;2024-03-06T14:32:32;17.10;68.70
35700;DHT22;21818;51.078;12.108;2024-03-06T14:34:58;17.10;68.20
35700;DHT22;21818;51.078;12.108;2024-03-06T14:37:24;16.80;68.30
35700;DHT22;21818;51.078;12.108;2024-03-06T14:39:49;16.60;68.60
35700;DHT22;21818;51.078;12.108;2024-03-06T14:42:16;16.40;68.80
35700;DHT22;21818;51.078;12.108;2024-03-06T14:44:42;16.40;68.90
35700;DHT22;21818;51.078;12.108;2024-03-06T14:47:09;16.60;68.30
35700;DHT22;21818;51.078;12.108;2024-03-06T14:49:35;16.90;68.00
35700;DHT22;21818;51.078;12.108;2024-03-06T14:52:01;17.10;67.70
35700;DHT22;21818;51.078;12.108;2024-03-06T14:54:27;17.00;67.60
35700;DHT22;21818;51.078;12.108;2024-03-06T14:56:53;17.00;67.50
35700;DHT22;21818;51.078;12.108;2024-03-06T14:59:19;16.80;67.50
35700;DHT22;21818;51.078;12.108;2024-03-06T15:01:45;16.90;67.50
35700;DHT22;21818;51.078;12.108;2024-03-06T15:04:10;17.10;67.20
35700;DHT22;21818;51.078;12.108;2024-03-06T15:06:39;17.10;66.90
35700;DHT22;21818;51.078;12.108;2024-03-06T15:09:05;16.80;66.90
35700;DHT22;21818;51.078;12.108;2024-03-06T15:11:31;16.60;67.30
35700;DHT22;21818;51.078;12.108;2024-03-06T15:14:01;16.50;67.60
35700;DHT22;21818;51.078;12.108;2024-03-06T15:16:26;16.40;67.80
35700;DHT22;21818;51.078;12.108;2024-03-06T15:18:52;16.50;67.80
35700;DHT22;21818;51.078;12.108;2024-03-06T15:21:19;16.70;67.40
35700;DHT22;21818;51.078;12.108;2024-03-06T15:23:45;16.80;67.00